createdAt,value
2023-06-19T00:01:24.151Z,30.78
2023-06-19T00:03:54.475Z,30.78
2023-06-19T00:06:24.913Z,30.79
2023-06-19T00:08:55.283Z,30.80
2023-06-19T00:11:25.584Z,30.79
2023-06-19T00:13:56.249Z,30.79
2023-06-19T00:16:28.583Z,30.78
2023-06-19T00:19:01.959Z,30.80
2023-06-19T00:21:33.043Z,30.83
2023-06-19T00:24:03.455Z,30.81
2023-06-19T00:26:34.067Z,30.83
2023-06-19T00:29:04.414Z,30.82
2023-06-19T00:31:34.948Z,30.84
2023-06-19T00:34:05.309Z,30.81
2023-06-19T00:36:35.844Z,30.83
2023-06-19T00:39:06.858Z,30.80
2023-06-19T00:41:39.787Z,30.79
2023-06-19T00:44:10.218Z,30.82
2023-06-19T00:46:43.801Z,30.80
2023-06-19T00:49:14.376Z,30.82
2023-06-19T00:51:44.742Z,30.87
2023-06-19T00:54:21.071Z,30.87
2023-06-19T00:56:52.340Z,30.86
2023-06-19T00:59:23.234Z,30.89
2023-06-19T01:01:53.639Z,30.85
2023-06-19T01:04:24.068Z,30.83
2023-06-19T01:07:03.726Z,30.83
2023-06-19T01:09:39.967Z,30.82
2023-06-19T01:12:28.681Z,30.83
2023-06-19T01:15:03.515Z,30.86
2023-06-19T01:17:34.378Z,30.83
2023-06-19T01:20:12.432Z,30.85
2023-06-19T01:22:42.805Z,30.84
2023-06-19T01:25:13.287Z,30.84
2023-06-19T01:27:48.617Z,30.84
2023-06-19T01:30:18.972Z,30.86
2023-06-19T01:33:02.750Z,30.85
2023-06-19T01:35:38.663Z,30.82
2023-06-19T01:38:11.095Z,30.83
2023-06-19T01:40:43.255Z,30.84
2023-06-19T01:43:14.756Z,30.87
2023-06-19T01:45:45.376Z,30.91
2023-06-19T01:48:17.478Z,30.90
2023-06-19T01:50:52.545Z,30.87
2023-06-19T01:53:23.060Z,30.91
2023-06-19T01:55:53.544Z,30.92
2023-06-19T01:58:23.841Z,30.92
2023-06-19T02:00:54.137Z,30.95
2023-06-19T02:03:24.583Z,30.95
2023-06-19T02:05:56.560Z,30.98
2023-06-19T02:08:26.865Z,30.97
2023-06-19T02:10:57.196Z,30.96
2023-06-19T02:13:27.473Z,30.98
2023-06-19T02:15:58.379Z,30.98
2023-06-19T02:18:31.634Z,31.01
2023-06-19T02:21:02.002Z,31.01
2023-06-19T02:23:32.582Z,31.04
2023-06-19T02:26:02.875Z,31.03
2023-06-19T02:28:33.181Z,31.02
2023-06-19T02:31:03.613Z,31.01
2023-06-19T02:33:35.832Z,31.02
2023-06-19T02:36:06.832Z,31.02
2023-06-19T02:38:37.030Z,31.05
2023-06-19T02:41:07.527Z,30.93
2023-06-19T02:43:37.937Z,31.02
2023-06-19T02:46:13.266Z,31.04
2023-06-19T02:48:44.835Z,31.04
2023-06-19T02:51:15.334Z,31.03
2023-06-19T02:53:47.284Z,31.06
2023-06-19T02:56:17.772Z,31.08
2023-06-19T02:58:49.990Z,31.09
2023-06-19T03:01:20.768Z,31.10
2023-06-19T03:03:51.461Z,31.10
2023-06-19T03:06:22.034Z,31.10
2023-06-19T03:08:52.385Z,31.04
2023-06-19T03:11:22.911Z,30.96
2023-06-19T03:13:57.935Z,31.08
2023-06-19T03:16:29.240Z,31.12
2023-06-19T03:18:59.701Z,30.94
2023-06-19T03:21:30.412Z,31.02
2023-06-19T03:24:00.937Z,30.95
2023-06-19T03:26:31.816Z,30.95
2023-06-19T03:29:04.527Z,31.01
2023-06-19T03:31:49.773Z,31.07
2023-06-19T03:34:20.194Z,31.04
2023-06-19T03:36:51.482Z,31.01
2023-06-19T03:39:23.496Z,31.09
2023-06-19T03:41:54.313Z,31.13
2023-06-19T03:44:24.582Z,31.04
2023-06-19T03:46:55.185Z,31.06
2023-06-19T03:49:25.602Z,31.14
2023-06-19T03:51:57.915Z,31.17
2023-06-19T03:54:29.718Z,31.19
2023-06-19T03:57:00.166Z,31.20
2023-06-19T03:59:30.513Z,31.18
2023-06-19T04:02:01.072Z,31.16
2023-06-19T04:04:31.480Z,31.07
2023-06-19T04:07:02.806Z,31.11
2023-06-19T04:09:33.249Z,31.09
2023-06-19T04:12:05.290Z,31.03
2023-06-19T04:14:35.872Z,31.13
2023-06-19T04:17:06.181Z,31.17
2023-06-19T04:19:36.626Z,31.19
2023-06-19T04:22:06.970Z,31.10
2023-06-19T04:24:39.629Z,31.16
2023-06-19T04:27:11.667Z,31.17
2023-06-19T04:29:41.824Z,31.25
2023-06-19T04:32:15.033Z,31.24
2023-06-19T04:34:49.553Z,31.18
2023-06-19T04:37:22.697Z,31.22
2023-06-19T04:39:53.036Z,31.26
2023-06-19T04:42:24.447Z,31.24
2023-06-19T04:44:54.927Z,31.14
2023-06-19T04:47:36.441Z,31.19
2023-06-19T04:50:14.800Z,31.28
2023-06-19T04:52:45.122Z,31.29
2023-06-19T04:55:15.753Z,31.24
2023-06-19T04:57:46.481Z,31.21
2023-06-19T05:00:18.253Z,31.20
2023-06-19T05:02:50.610Z,31.14
2023-06-19T05:05:24.400Z,31.28
2023-06-19T05:07:55.048Z,31.23
2023-06-19T05:10:25.862Z,31.28
2023-06-19T05:12:56.553Z,31.33
2023-06-19T05:15:27.383Z,31.28
2023-06-19T05:17:58.059Z,31.32
2023-06-19T05:20:29.113Z,31.27
2023-06-19T05:22:59.446Z,31.23
2023-06-19T05:25:32.080Z,31.29
2023-06-19T05:28:04.934Z,31.34
2023-06-19T05:30:36.097Z,31.28
2023-06-19T05:33:06.518Z,31.23
2023-06-19T05:35:36.743Z,31.31
2023-06-19T05:38:06.922Z,31.37
2023-06-19T05:40:37.162Z,31.37
2023-06-19T05:43:07.533Z,31.40
2023-06-19T05:45:38.204Z,31.40
2023-06-19T05:48:08.708Z,31.39
2023-06-19T05:50:39.175Z,31.34
2023-06-19T05:53:09.611Z,31.38
2023-06-19T05:55:39.923Z,31.41
2023-06-19T05:58:10.422Z,31.40
2023-06-19T06:00:40.672Z,31.42
2023-06-19T06:03:10.924Z,31.43
2023-06-19T06:05:41.428Z,31.44
2023-06-19T06:08:11.717Z,31.42
2023-06-19T06:10:42.041Z,31.41
2023-06-19T06:13:12.550Z,31.44
2023-06-19T06:15:43.225Z,31.43
2023-06-19T06:18:13.800Z,31.49
2023-06-19T06:20:44.260Z,31.49
2023-06-19T06:23:14.789Z,31.44
2023-06-19T06:25:45.163Z,31.45
2023-06-19T06:28:15.972Z,31.48
2023-06-19T06:30:46.544Z,31.50
2023-06-19T06:33:17.053Z,31.41
2023-06-19T06:35:47.976Z,31.42
2023-06-19T06:38:18.652Z,31.42
2023-06-19T06:40:49.587Z,31.40
2023-06-19T06:43:20.138Z,31.44
2023-06-19T06:45:50.737Z,31.47
2023-06-19T06:48:21.338Z,31.52
2023-06-19T06:50:51.670Z,31.48
2023-06-19T06:53:22.101Z,31.47
2023-06-19T06:55:52.391Z,31.52
2023-06-19T06:58:22.711Z,31.52
2023-06-19T07:00:54.543Z,31.55
2023-06-19T07:03:25.144Z,31.54
2023-06-19T07:05:56.081Z,31.57
2023-06-19T07:08:27.057Z,31.61
2023-06-19T07:10:57.428Z,31.54
2023-06-19T07:13:28.747Z,31.57
2023-06-19T07:15:58.889Z,31.53
2023-06-19T07:18:29.020Z,31.52
2023-06-19T07:21:00.409Z,31.56
2023-06-19T07:23:31.198Z,31.59
2023-06-19T07:26:01.587Z,31.59
2023-06-19T07:28:31.974Z,31.59
2023-06-19T07:31:02.304Z,31.65
2023-06-19T07:33:33.314Z,31.65
2023-06-19T07:36:06.082Z,31.63
2023-06-19T07:38:36.653Z,31.64
2023-06-19T07:41:06.893Z,31.61
2023-06-19T07:43:37.345Z,31.58
2023-06-19T07:46:08.468Z,31.63
2023-06-19T07:48:39.104Z,31.58
2023-06-19T07:51:09.529Z,31.72
2023-06-19T07:53:39.874Z,31.66
2023-06-19T07:56:11.932Z,31.67
2023-06-19T07:58:42.440Z,31.74
2023-06-19T08:01:13.787Z,31.70
2023-06-19T08:03:43.864Z,31.65
2023-06-19T08:06:14.103Z,31.69
2023-06-19T08:08:44.565Z,31.66
2023-06-19T08:11:14.832Z,31.66
2023-06-19T08:13:45.074Z,31.70
2023-06-19T08:16:15.410Z,31.69
2023-06-19T08:18:46.052Z,31.67
2023-06-19T08:21:17.172Z,31.67
2023-06-19T08:23:47.529Z,31.68
2023-06-19T08:26:17.967Z,31.71
2023-06-19T08:28:48.293Z,31.68
2023-06-19T08:31:18.917Z,31.68
2023-06-19T08:33:54.808Z,31.72
2023-06-19T08:36:27.111Z,31.65
2023-06-19T08:38:57.433Z,31.66
2023-06-19T08:41:27.912Z,31.70
2023-06-19T08:43:58.792Z,31.70
2023-06-19T08:46:29.206Z,31.74
2023-06-19T08:49:00.456Z,31.73
2023-06-19T08:51:36.077Z,31.76
2023-06-19T08:54:10.432Z,31.75
2023-06-19T08:56:43.569Z,31.77
2023-06-19T08:59:15.329Z,31.74
2023-06-19T09:01:58.279Z,31.73
2023-06-19T09:04:34.640Z,31.77
2023-06-19T09:07:07.402Z,31.77
2023-06-19T09:09:52.418Z,31.78
2023-06-19T09:12:22.570Z,31.80
2023-06-19T09:15:00.657Z,31.81
2023-06-19T09:17:31.055Z,31.79
2023-06-19T09:20:09.307Z,31.78
2023-06-19T09:22:39.954Z,31.82
2023-06-19T09:25:13.562Z,31.82
2023-06-19T09:27:43.876Z,31.86
2023-06-19T09:30:19.895Z,31.82
2023-06-19T09:32:51.638Z,31.82
2023-06-19T09:35:22.174Z,31.85
2023-06-19T09:37:55.844Z,31.85
2023-06-19T09:40:27.164Z,31.82
2023-06-19T09:43:00.268Z,31.83
2023-06-19T09:45:35.947Z,31.90
2023-06-19T09:48:07.616Z,31.84
2023-06-19T09:50:57.988Z,31.84
2023-06-19T09:53:29.086Z,31.80
2023-06-19T09:55:59.736Z,31.85
2023-06-19T09:58:31.726Z,31.90
2023-06-19T10:01:03.094Z,31.96
2023-06-19T10:03:37.808Z,31.91
2023-06-19T10:06:08.656Z,31.92
2023-06-19T10:08:47.421Z,31.89
2023-06-19T10:11:18.222Z,31.95
2023-06-19T10:13:49.057Z,31.91
2023-06-19T10:16:29.242Z,31.92
2023-06-19T10:19:01.370Z,31.91
2023-06-19T10:21:31.782Z,31.87
2023-06-19T10:24:05.768Z,31.89
2023-06-19T10:26:41.404Z,31.90
2023-06-19T10:29:19.910Z,31.94
2023-06-19T10:31:50.848Z,31.94
2023-06-19T10:34:21.688Z,31.91
2023-06-19T10:36:52.065Z,31.93
2023-06-19T10:39:22.504Z,31.92
2023-06-19T10:41:53.554Z,31.94
2023-06-19T10:44:30.235Z,31.94
2023-06-19T10:47:00.612Z,31.93
2023-06-19T10:49:31.789Z,31.92
2023-06-19T10:52:03.729Z,31.92
2023-06-19T10:54:34.743Z,31.93
2023-06-19T10:57:08.527Z,31.93
2023-06-19T10:59:39.051Z,32.02
2023-06-19T11:02:09.851Z,32.06
2023-06-19T11:04:43.117Z,32.02
2023-06-19T11:07:13.851Z,31.97
2023-06-19T11:09:45.028Z,32.00
2023-06-19T11:12:15.967Z,31.97
2023-06-19T11:14:46.888Z,31.97
2023-06-19T11:17:17.803Z,32.00
2023-06-19T11:19:48.487Z,31.96
2023-06-19T11:22:19.208Z,31.97
2023-06-19T11:24:49.989Z,31.98
2023-06-19T11:27:28.015Z,31.98
2023-06-19T11:30:04.579Z,32.00
2023-06-19T11:32:37.716Z,31.99
2023-06-19T11:35:16.428Z,31.98
2023-06-19T11:37:47.622Z,31.96
2023-06-19T11:40:23.077Z,32.02
2023-06-19T11:42:57.574Z,32.04
2023-06-19T11:45:27.977Z,32.03
2023-06-19T11:47:58.517Z,32.02
2023-06-19T11:50:32.424Z,32.00
2023-06-19T11:53:04.515Z,32.03
2023-06-19T11:55:35.392Z,32.04
2023-06-19T11:58:06.764Z,31.99
2023-06-19T12:00:37.751Z,32.04
2023-06-19T12:03:08.631Z,32.00
2023-06-19T12:05:39.768Z,32.04
2023-06-19T12:08:10.538Z,32.06
2023-06-19T12:10:41.143Z,32.00
2023-06-19T12:13:11.484Z,32.07
2023-06-19T12:15:42.000Z,32.07
2023-06-19T12:18:15.675Z,32.09
2023-06-19T12:20:46.287Z,32.03
2023-06-19T12:23:16.748Z,32.04
2023-06-19T12:25:47.546Z,32.09
2023-06-19T12:28:21.929Z,32.04
2023-06-19T12:30:56.563Z,32.04
2023-06-19T12:33:28.276Z,32.02
2023-06-19T12:36:00.013Z,32.00
2023-06-19T12:38:30.448Z,31.97
2023-06-19T12:41:01.011Z,32.06
2023-06-19T12:43:31.285Z,32.00
2023-06-19T12:46:03.019Z,31.95
2023-06-19T12:48:33.484Z,31.94
2023-06-19T12:51:03.858Z,31.89
2023-06-19T12:53:34.776Z,31.92
2023-06-19T12:56:09.734Z,31.85
2023-06-19T12:58:43.002Z,31.88
2023-06-19T13:01:13.492Z,31.90
2023-06-19T13:47:05.098Z,31.21
2023-06-19T13:49:37.293Z,31.27
2023-06-19T13:52:09.078Z,31.33
2023-06-19T13:54:40.919Z,31.44
2023-06-19T13:57:11.448Z,31.46
2023-06-19T13:59:41.900Z,31.59
2023-06-19T14:02:13.977Z,31.61
2023-06-19T14:04:44.537Z,31.68
2023-06-19T14:07:14.894Z,31.69
2023-06-19T14:09:45.686Z,31.73
2023-06-19T14:12:16.062Z,31.80
2023-06-19T14:14:46.579Z,31.80
2023-06-19T14:17:17.616Z,31.79
2023-06-19T14:19:49.214Z,31.87
2023-06-19T14:22:21.541Z,31.93
2023-06-19T14:24:52.689Z,31.96
2023-06-19T14:27:24.004Z,31.93
2023-06-19T14:29:54.126Z,31.97
2023-06-19T14:32:25.405Z,32.01
2023-06-19T14:34:55.899Z,31.94
2023-06-19T14:37:26.416Z,31.98
2023-06-19T14:39:58.441Z,32.02
2023-06-19T14:42:28.948Z,32.05
2023-06-19T14:44:59.389Z,31.99
2023-06-19T14:47:29.832Z,32.01
2023-06-19T14:50:00.387Z,32.05
2023-06-19T14:52:30.766Z,32.01
2023-06-19T14:55:01.231Z,31.99
2023-06-19T14:57:31.672Z,32.08
2023-06-19T15:00:02.114Z,32.03
2023-06-19T15:02:32.344Z,32.01
2023-06-19T15:05:09.837Z,32.00
2023-06-19T15:07:40.368Z,32.06
2023-06-19T15:10:11.682Z,32.09
2023-06-19T15:12:42.046Z,32.08
2023-06-19T15:15:12.855Z,32.10
2023-06-19T15:17:43.427Z,32.11
2023-06-19T15:20:14.278Z,31.92
2023-06-19T15:22:45.095Z,31.95
2023-06-19T15:25:16.074Z,31.90
2023-06-19T15:27:47.915Z,31.90
2023-06-19T15:30:18.369Z,31.89
2023-06-19T15:32:48.624Z,31.85
2023-06-19T15:35:19.193Z,31.84
2023-06-19T15:37:49.730Z,31.85
2023-06-19T15:40:20.106Z,31.88
2023-06-19T15:42:50.644Z,31.94
2023-06-19T15:45:20.948Z,31.98
2023-06-19T15:47:51.637Z,32.00
2023-06-19T15:50:22.202Z,32.04
2023-06-19T15:52:52.835Z,32.07
2023-06-19T15:55:24.252Z,32.05
2023-06-19T15:57:54.786Z,32.06
2023-06-19T16:00:25.626Z,32.03
2023-06-19T16:02:56.296Z,32.06
2023-06-19T16:05:26.944Z,32.02
2023-06-19T16:07:57.911Z,32.01
2023-06-19T16:10:28.290Z,32.04
2023-06-19T16:12:58.475Z,32.05
2023-06-19T16:15:31.487Z,32.00
2023-06-19T16:18:02.680Z,32.04
2023-06-19T16:20:33.289Z,32.01
2023-06-19T16:23:03.645Z,32.03
2023-06-19T16:25:34.227Z,32.03
2023-06-19T16:28:05.145Z,32.00
2023-06-19T16:30:35.501Z,32.01
2023-06-19T16:33:05.877Z,32.02
2023-06-19T16:35:36.322Z,32.06
2023-06-19T16:38:06.680Z,32.03
2023-06-19T16:40:37.152Z,32.04
2023-06-19T16:43:07.836Z,32.06
2023-06-19T16:45:38.177Z,32.08
2023-06-19T16:48:08.716Z,32.08
2023-06-19T16:50:40.342Z,32.06
2023-06-19T16:53:10.830Z,32.04
2023-06-19T16:55:41.559Z,32.06
2023-06-19T16:58:11.901Z,32.03
2023-06-19T17:00:42.264Z,32.03
2023-06-19T17:03:13.035Z,32.03
2023-06-19T17:05:43.687Z,32.03
2023-06-19T17:08:14.155Z,31.97
2023-06-19T17:10:44.737Z,32.00
2023-06-19T17:13:15.194Z,31.95
2023-06-19T17:15:45.582Z,31.98
2023-06-19T17:18:16.070Z,31.95
2023-06-19T17:20:46.573Z,31.96
2023-06-19T17:23:17.465Z,31.96
2023-06-19T17:25:49.119Z,31.96
2023-06-19T17:28:19.429Z,31.95
2023-06-19T17:30:50.932Z,31.96
2023-06-19T17:33:21.542Z,31.97
2023-06-19T17:35:51.971Z,31.95
2023-06-19T17:38:22.443Z,31.97
2023-06-19T17:40:52.815Z,31.95
2023-06-19T17:43:23.259Z,31.95
2023-06-19T17:45:53.636Z,31.97
2023-06-19T17:48:23.948Z,31.96
2023-06-19T17:50:54.308Z,31.96
2023-06-19T17:53:24.431Z,31.98
2023-06-19T17:55:54.738Z,31.93
2023-06-19T17:58:27.164Z,31.97
2023-06-19T18:00:57.441Z,31.95
2023-06-19T18:03:27.991Z,31.95
2023-06-19T18:05:58.481Z,31.96
2023-06-19T18:08:28.987Z,31.97
2023-06-19T18:11:01.279Z,31.98
2023-06-19T18:13:31.594Z,31.96
2023-06-19T18:16:11.833Z,31.96
2023-06-19T18:18:43.258Z,31.96
2023-06-19T18:21:13.483Z,31.98
2023-06-19T18:23:43.698Z,31.95
2023-06-19T18:26:14.245Z,31.94
2023-06-19T18:28:44.539Z,31.96
2023-06-19T18:31:14.818Z,32.01
2023-06-19T18:33:45.174Z,31.98
2023-06-19T18:36:15.577Z,31.97
2023-06-19T18:38:45.986Z,31.96
2023-06-19T18:41:16.582Z,31.96
2023-06-19T18:43:46.899Z,31.94
2023-06-19T18:46:17.415Z,31.96
2023-06-19T18:48:48.954Z,31.96
2023-06-19T18:51:19.547Z,31.95
2023-06-19T18:53:50.030Z,31.97
2023-06-19T18:56:21.381Z,31.96
2023-06-19T18:58:51.863Z,31.96
2023-06-19T19:01:22.356Z,31.95
2023-06-19T19:03:52.876Z,31.92
2023-06-19T19:06:23.529Z,31.95
2023-06-19T19:08:59.508Z,31.97
2023-06-19T19:11:30.114Z,31.94
2023-06-19T19:14:00.798Z,31.95
2023-06-19T19:16:31.208Z,31.95
2023-06-19T19:19:01.737Z,31.91
2023-06-19T19:21:32.538Z,31.91
2023-06-19T19:24:02.940Z,31.92
2023-06-19T19:26:36.053Z,31.91
2023-06-19T19:29:06.918Z,31.93
2023-06-19T19:31:37.525Z,31.92
2023-06-19T19:34:08.051Z,31.93
2023-06-19T19:36:38.845Z,31.92
2023-06-19T19:39:09.220Z,31.89
2023-06-19T19:41:39.423Z,31.92
2023-06-19T19:44:09.769Z,31.89
2023-06-19T19:46:41.837Z,31.90
2023-06-19T19:49:12.467Z,31.89
2023-06-19T19:51:42.997Z,31.90
2023-06-19T19:54:13.306Z,31.92
2023-06-19T19:56:43.648Z,31.90
2023-06-19T19:59:14.113Z,31.90
2023-06-19T20:01:44.542Z,31.89
2023-06-19T20:04:17.505Z,31.89
2023-06-19T20:06:48.622Z,31.85
2023-06-19T20:09:18.961Z,31.91
2023-06-19T20:11:50.655Z,31.90
2023-06-19T20:14:22.281Z,31.88
2023-06-19T20:16:52.667Z,31.91
2023-06-19T20:19:23.064Z,31.91
2023-06-19T20:21:53.636Z,31.92
2023-06-19T20:24:23.946Z,31.90
2023-06-19T20:26:54.324Z,31.87
2023-06-19T20:29:24.691Z,31.91
2023-06-19T20:31:55.035Z,31.82
2023-06-19T20:34:25.599Z,31.85
2023-06-19T20:36:56.009Z,31.87
2023-06-19T20:39:26.372Z,31.87
2023-06-19T20:41:57.011Z,31.86
2023-06-19T20:44:28.337Z,31.88
2023-06-19T20:47:00.608Z,31.86
2023-06-19T20:49:31.899Z,31.87
2023-06-19T20:52:02.364Z,31.88
2023-06-19T20:54:32.712Z,31.91
2023-06-19T20:57:03.079Z,31.87
2023-06-19T20:59:33.453Z,31.88
2023-06-19T21:02:03.774Z,31.86
2023-06-19T21:04:35.492Z,31.88
2023-06-19T21:07:05.868Z,31.88
2023-06-19T21:09:36.291Z,31.85
2023-06-19T21:12:06.660Z,31.86
2023-06-19T21:14:37.535Z,31.82
2023-06-19T21:17:08.355Z,31.82
2023-06-19T21:19:38.703Z,31.80
2023-06-19T21:22:09.199Z,31.81
2023-06-19T21:24:40.971Z,31.80
2023-06-19T21:27:11.242Z,31.81
2023-06-19T21:29:41.733Z,31.78
2023-06-19T21:32:12.464Z,31.77
2023-06-19T21:34:43.100Z,31.75
2023-06-19T21:37:13.481Z,31.77
2023-06-19T21:39:44.073Z,31.77
2023-06-19T21:42:14.444Z,31.72
2023-06-19T21:44:46.602Z,31.71
2023-06-19T21:47:16.887Z,31.72
2023-06-19T21:49:47.698Z,31.72
2023-06-19T21:52:18.126Z,31.74
2023-06-19T21:54:48.622Z,31.74
2023-06-19T21:57:19.040Z,31.74
2023-06-19T21:59:50.018Z,31.67
2023-06-19T22:02:20.954Z,31.69
2023-06-19T22:04:51.427Z,31.70
2023-06-19T22:07:21.932Z,31.71
2023-06-19T22:09:52.408Z,31.70
2023-06-19T22:12:22.953Z,31.67
2023-06-19T22:14:55.066Z,31.66
2023-06-19T22:17:25.433Z,31.68
2023-06-19T22:19:55.904Z,31.67
2023-06-19T22:22:26.354Z,31.68
2023-06-19T22:24:56.834Z,31.67
2023-06-19T22:27:27.229Z,31.71
2023-06-19T22:29:57.663Z,31.74
2023-06-19T22:32:27.922Z,31.74
2023-06-19T22:34:58.771Z,31.72
2023-06-19T22:37:29.444Z,31.72
2023-06-19T22:39:59.841Z,31.74
2023-06-19T22:42:31.333Z,31.77
2023-06-19T22:45:02.516Z,31.77
2023-06-19T22:49:39.963Z,31.74
2023-06-19T22:52:11.178Z,31.72
2023-06-19T22:54:41.518Z,31.71
2023-06-19T22:57:11.827Z,31.73
2023-06-19T22:59:43.249Z,31.77
2023-06-19T23:02:13.203Z,31.76
2023-06-19T23:04:43.624Z,31.75
2023-06-19T23:07:14.046Z,31.74
2023-06-19T23:09:44.165Z,31.73
2023-06-19T23:12:14.530Z,31.72
2023-06-19T23:14:44.710Z,31.69
2023-06-19T23:17:14.928Z,31.70
2023-06-19T23:19:46.121Z,31.71
2023-06-19T23:22:16.435Z,31.66
2023-06-19T23:24:47.021Z,31.70
2023-06-19T23:27:19.389Z,31.74
2023-06-19T23:29:49.994Z,31.74
2023-06-19T23:32:20.355Z,31.73
2023-06-19T23:34:52.413Z,31.69
2023-06-19T23:37:22.805Z,31.68
2023-06-19T23:39:53.301Z,31.72
2023-06-19T23:42:24.820Z,31.69
2023-06-19T23:44:55.330Z,31.67
2023-06-19T23:47:25.693Z,31.68
2023-06-19T23:49:55.986Z,31.72
2023-06-19T23:52:38.082Z,31.70
2023-06-19T23:55:12.865Z,31.70
2023-06-19T23:57:43.956Z,31.75
